createdAt,value
2023-02-22T00:01:34.560Z,34.25
2023-02-22T00:06:35.578Z,33.33
2023-02-22T00:11:37.784Z,26.35
2023-02-22T00:16:38.624Z,33.53
2023-02-22T00:21:39.850Z,33.33
2023-02-22T00:26:40.545Z,29.30
2023-02-22T00:31:41.402Z,30.60
2023-02-22T00:36:47.301Z,27.90
2023-02-22T00:41:48.940Z,28.62
2023-02-22T00:46:49.693Z,31.02
2023-02-22T00:51:50.561Z,35.03
2023-02-22T00:56:51.379Z,35.97
2023-02-22T01:01:52.697Z,34.28
2023-02-22T01:06:54.041Z,39.58
2023-02-22T01:11:56.239Z,32.20
2023-02-22T01:16:57.372Z,35.47
2023-02-22T01:21:58.318Z,28.33
2023-02-22T01:26:59.068Z,32.58
2023-02-22T01:32:00.942Z,25.90
2023-02-22T01:37:02.210Z,29.87
2023-02-22T01:42:03.765Z,23.70
2023-02-22T01:47:05.664Z,30.20
2023-02-22T01:52:09.562Z,26.95
2023-02-22T01:57:25.717Z,28.20
2023-02-22T02:02:27.356Z,26.87
2023-02-22T02:07:28.848Z,27.67
2023-02-22T02:12:34.961Z,23.95
2023-02-22T02:17:36.321Z,37.40
2023-02-22T02:29:42.559Z,29.45
2023-02-22T02:35:14.431Z,42.17
2023-02-22T02:40:23.912Z,38.80
2023-02-22T02:45:32.316Z,45.03
2023-02-22T02:50:40.864Z,52.13
2023-02-22T02:55:41.878Z,51.88
2023-02-22T03:00:44.397Z,54.08
2023-02-22T03:08:56.358Z,70.73
2023-02-22T03:14:21.195Z,65.50
2023-02-22T03:19:32.365Z,71.40
2023-02-22T03:24:52.113Z,70.60
2023-02-22T03:30:00.954Z,77.93
2023-02-22T03:35:10.638Z,77.50
2023-02-22T03:40:16.244Z,76.50
2023-02-22T03:45:23.708Z,77.90
2023-02-22T03:50:32.804Z,76.97
2023-02-22T03:55:34.032Z,69.80
2023-02-22T04:00:35.408Z,75.95
2023-02-22T04:05:36.290Z,67.45
2023-02-22T04:10:37.234Z,76.82
2023-02-22T04:15:38.355Z,77.25
2023-02-22T04:20:42.436Z,69.75
2023-02-22T04:25:46.997Z,58.85
2023-02-22T04:30:50.894Z,57.08
2023-02-22T04:35:53.026Z,57.77
2023-02-22T04:40:54.775Z,44.97
2023-02-22T04:45:55.976Z,37.13
2023-02-22T04:50:57.980Z,28.70
2023-02-22T04:55:59.029Z,26.83
2023-02-22T05:01:01.264Z,24.60
2023-02-22T05:06:02.064Z,20.62
2023-02-22T05:11:04.344Z,21.27
2023-02-22T05:16:05.579Z,24.12
2023-02-22T05:21:06.703Z,22.60
2023-02-22T05:26:08.395Z,26.62
2023-02-22T05:31:10.406Z,30.52
2023-02-22T05:36:11.162Z,25.15
2023-02-22T05:41:12.241Z,27.95
2023-02-22T05:46:13.460Z,26.58
2023-02-22T05:51:15.005Z,28.73
2023-02-22T05:56:20.950Z,22.23
2023-02-22T06:01:22.508Z,23.12
2023-02-22T06:06:23.238Z,21.00
2023-02-22T06:11:24.012Z,28.42
2023-02-22T06:16:24.840Z,26.20
2023-02-22T06:21:26.366Z,30.85
2023-02-22T06:26:27.072Z,26.55
2023-02-22T06:31:27.982Z,27.13
2023-02-22T06:36:28.884Z,28.92
2023-02-22T06:41:29.674Z,34.33
2023-02-22T06:46:30.857Z,32.20
2023-02-22T06:51:36.520Z,37.42
2023-02-22T06:56:37.653Z,38.30
2023-02-22T07:01:42.118Z,40.03
2023-02-22T07:06:46.932Z,41.10
2023-02-22T07:11:47.758Z,46.37
2023-02-22T07:16:48.526Z,48.15
2023-02-22T07:21:50.243Z,50.50
2023-02-22T07:26:51.137Z,46.22
2023-02-22T07:31:52.092Z,38.33
2023-02-22T07:36:52.883Z,42.88
2023-02-22T07:41:53.683Z,46.40
2023-02-22T07:46:57.753Z,77.70
2023-02-22T07:51:58.484Z,63.92
2023-02-22T07:56:59.266Z,55.12
2023-02-22T08:02:00.190Z,61.75
2023-02-22T08:07:03.362Z,61.42
2023-02-22T08:12:05.132Z,58.97
2023-02-22T08:17:07.738Z,58.40
2023-02-22T08:22:09.572Z,55.95
2023-02-22T08:27:10.272Z,50.12
2023-02-22T08:32:11.346Z,50.80
2023-02-22T08:37:15.971Z,55.33
2023-02-22T08:42:16.779Z,53.00
2023-02-22T08:47:17.585Z,58.22
2023-02-22T08:52:20.729Z,51.70
2023-02-22T09:02:24.535Z,52.78
2023-02-22T09:07:25.260Z,56.47
2023-02-22T09:12:26.045Z,62.85
2023-02-22T09:17:26.811Z,60.92
2023-02-22T09:22:30.096Z,68.82
2023-02-22T09:32:31.859Z,73.40
2023-02-22T09:37:32.823Z,82.85
2023-02-22T09:42:41.938Z,88.35
2023-02-22T09:47:49.613Z,89.32
2023-02-22T09:52:58.635Z,93.87
2023-02-22T09:58:03.514Z,88.68
2023-02-22T10:04:48.198Z,78.18
2023-02-22T10:09:49.362Z,80.07
2023-02-22T10:16:48.709Z,83.07
2023-02-22T10:22:38.764Z,75.50
2023-02-22T10:33:33.982Z,68.80
2023-02-22T10:38:35.365Z,79.20
2023-02-22T10:43:37.816Z,67.70
2023-02-22T10:48:41.619Z,60.07
2023-02-22T10:53:44.846Z,47.90
2023-02-22T11:04:18.206Z,53.63
2023-02-22T11:09:21.858Z,43.03
2023-02-22T11:14:28.682Z,39.47
2023-02-22T11:19:32.116Z,33.95
2023-02-22T11:24:48.396Z,37.42
2023-02-22T11:29:51.131Z,40.58
2023-02-22T11:35:19.257Z,37.30
2023-02-22T11:40:21.906Z,39.83
2023-02-22T11:45:24.125Z,37.25
2023-02-22T11:50:45.734Z,37.90
2023-02-22T11:56:20.555Z,42.15
2023-02-22T12:03:03.746Z,40.22
2023-02-22T12:08:24.392Z,41.22
2023-02-22T12:14:07.074Z,40.85
2023-02-22T12:19:19.564Z,41.28
2023-02-22T12:24:36.172Z,41.83
2023-02-22T12:29:46.285Z,39.72
2023-02-22T12:35:00.052Z,39.45
2023-02-22T12:40:17.610Z,39.00
2023-02-22T12:45:47.432Z,41.80
2023-02-22T12:50:53.580Z,36.25
2023-02-22T12:58:35.516Z,41.72
2023-02-22T13:03:41.635Z,34.00
2023-02-22T13:09:19.780Z,36.00
2023-02-22T13:17:14.348Z,32.20
2023-02-22T13:22:43.862Z,34.95
2023-02-22T13:27:59.387Z,33.15
2023-02-22T13:39:59.248Z,34.50
2023-02-22T13:47:56.940Z,32.35
2023-02-22T13:53:02.616Z,34.08
2023-02-22T13:58:09.782Z,30.58
2023-02-22T14:03:35.156Z,32.10
2023-02-22T14:08:41.292Z,33.20
2023-02-22T14:14:17.609Z,29.42
2023-02-22T14:19:23.208Z,31.12
2023-02-22T14:24:24.218Z,31.98
2023-02-22T14:29:25.242Z,30.45
2023-02-22T14:38:00.060Z,32.70
2023-02-22T14:43:10.494Z,30.97
2023-02-22T14:48:59.466Z,32.22
2023-02-22T14:54:20.424Z,33.13
2023-02-22T14:59:27.325Z,33.92
2023-02-22T15:04:30.213Z,34.33
2023-02-22T15:09:36.652Z,34.40
2023-02-22T15:14:40.385Z,28.48
2023-02-22T15:19:41.721Z,32.70
2023-02-22T15:24:42.512Z,27.48
2023-02-22T15:29:44.669Z,33.95
2023-02-22T15:34:45.667Z,37.13
2023-02-22T15:39:46.478Z,34.08
2023-02-22T15:44:49.132Z,36.40
2023-02-22T15:50:24.597Z,31.62
2023-02-22T15:55:37.489Z,37.22
2023-02-22T16:00:44.895Z,34.80
2023-02-22T16:05:50.965Z,36.15
2023-02-22T16:11:12.813Z,38.47
2023-02-22T16:16:34.648Z,34.90
2023-02-22T16:21:57.586Z,38.75
2023-02-22T16:27:19.407Z,39.40
2023-02-22T16:32:20.330Z,39.08
2023-02-22T16:37:22.739Z,40.75
2023-02-22T16:42:23.752Z,46.30
2023-02-22T16:47:24.568Z,41.00
2023-02-22T16:52:27.343Z,39.60
2023-02-22T16:57:30.779Z,37.45
2023-02-22T17:02:31.677Z,41.05
2023-02-22T17:07:33.082Z,37.25
2023-02-22T17:12:33.930Z,40.55
2023-02-22T17:17:34.765Z,39.58
2023-02-22T17:22:35.510Z,37.20
2023-02-22T17:27:36.534Z,41.92
2023-02-22T17:32:37.482Z,47.80
2023-02-22T17:37:38.310Z,35.22
2023-02-22T17:42:39.599Z,39.45
2023-02-22T17:47:43.177Z,38.20
2023-02-22T17:52:44.282Z,41.37
2023-02-22T17:57:46.718Z,40.03
2023-02-22T18:02:48.926Z,39.08
2023-02-22T18:07:49.751Z,38.58
2023-02-22T18:12:52.525Z,36.20
2023-02-22T18:17:54.963Z,36.15
2023-02-22T18:22:59.569Z,36.27
2023-02-22T18:28:02.047Z,38.08
2023-02-22T18:33:03.680Z,37.35
2023-02-22T18:38:04.622Z,36.13
2023-02-22T18:43:05.410Z,38.92
2023-02-22T18:48:06.165Z,39.50
2023-02-22T18:53:06.980Z,44.97
2023-02-22T18:58:10.237Z,40.42
2023-02-22T19:03:11.078Z,39.63
2023-02-22T19:08:11.997Z,41.42
2023-02-22T19:13:12.952Z,40.85
2023-02-22T19:18:13.994Z,43.03
2023-02-22T19:23:14.842Z,36.85
2023-02-22T19:28:15.730Z,39.13
2023-02-22T19:33:16.647Z,39.00
2023-02-22T19:38:17.386Z,35.55
2023-02-22T19:43:18.651Z,42.00
2023-02-22T19:48:19.947Z,36.53
2023-02-22T19:53:20.702Z,66.85
2023-02-22T19:58:21.628Z,90.30
2023-02-22T20:03:25.097Z,83.25
2023-02-22T20:08:26.003Z,68.43
2023-02-22T20:13:27.192Z,61.17
2023-02-22T20:18:28.991Z,53.25
2023-02-22T20:23:29.819Z,56.83
2023-02-22T20:28:30.702Z,45.28
2023-02-22T20:33:31.878Z,48.58
2023-02-22T20:38:32.828Z,46.63
2023-02-22T20:43:34.715Z,45.58
2023-02-22T20:48:36.320Z,40.42
2023-02-22T20:53:40.875Z,48.22
2023-02-22T20:58:41.927Z,47.30
2023-02-22T21:03:43.209Z,40.63
2023-02-22T21:08:48.447Z,40.00
2023-02-22T21:13:50.327Z,42.53
2023-02-22T21:18:52.510Z,39.65
2023-02-22T21:23:55.290Z,43.60
2023-02-22T21:29:02.557Z,41.67
2023-02-22T21:34:03.969Z,39.38
2023-02-22T21:39:50.493Z,35.42
2023-02-22T21:44:55.429Z,49.17
2023-02-22T21:49:56.492Z,52.13
2023-02-22T21:54:57.296Z,48.55
2023-02-22T21:59:58.091Z,44.08
2023-02-22T22:04:58.957Z,50.28
2023-02-22T22:10:00.024Z,37.88
2023-02-22T22:15:00.879Z,43.60
2023-02-22T22:20:04.851Z,45.95
2023-02-22T22:25:06.535Z,43.35
2023-02-22T22:30:10.088Z,46.70
2023-02-22T22:35:13.814Z,41.03
2023-02-22T22:40:14.950Z,36.80
2023-02-22T22:45:17.232Z,35.70
2023-02-22T22:50:18.589Z,29.47
2023-02-22T22:55:19.354Z,31.60
2023-02-22T23:00:39.466Z,30.73
2023-02-22T23:05:41.549Z,28.10
2023-02-22T23:10:42.331Z,30.30
2023-02-22T23:15:47.415Z,26.50
2023-02-22T23:20:54.761Z,27.08
2023-02-22T23:26:17.369Z,23.10
2023-02-22T23:31:18.643Z,26.30
2023-02-22T23:36:19.851Z,24.87
2023-02-22T23:41:24.171Z,28.60
2023-02-22T23:46:26.109Z,33.03
2023-02-22T23:51:30.537Z,28.70
2023-02-22T23:56:31.718Z,38.40
